Time;durP1;ratioP1;P1;durP2;ratioP2;P2;SDS_P1;SDS_P2;PMS_P1;PMS_P2;Temp;Humidity;BMP_temperature;BMP_pressure;BME280_temperature;BME280_humidity;BME280_pressure;Samples;Min_cycle;Max_cycle;Signal;HPM_P1;HPM_P2
2021/12/06 00:01:34;;;;;;;6.40;3.75;;;7.90;58.50;;;;;;6114745;23;20025;-52
2021/12/06 00:04:17;;;;;;;7.30;3.65;;;7.80;58.40;;;;;;6124918;23;19998;-51
2021/12/06 00:06:50;;;;;;;6.68;3.78;;;7.80;58.50;;;;;;6120991;23;20021;-56
2021/12/06 00:09:20;;;;;;;7.38;4.28;;;7.80;58.50;;;;;;6125555;23;20002;-53
2021/12/06 00:11:50;;;;;;;9.65;3.67;;;7.80;58.50;;;;;;6116240;23;20427;-53
2021/12/06 00:14:16;;;;;;;6.63;3.88;;;7.80;58.50;;;;;;6115092;23;20204;-54
2021/12/06 00:16:42;;;;;;;6.28;3.92;;;7.80;58.50;;;;;;6111922;23;20005;-53
2021/12/06 00:19:09;;;;;;;8.02;4.20;;;7.80;58.50;;;;;;6114892;23;20002;-56
2021/12/06 00:21:35;;;;;;;6.97;3.72;;;7.80;58.50;;;;;;6113679;23;20025;-53
2021/12/06 00:24:02;;;;;;;6.25;3.90;;;7.80;58.50;;;;;;6116582;23;20771;-50
2021/12/06 00:26:28;;;;;;;12.07;4.40;;;7.80;58.60;;;;;;6115494;23;20005;-54
2021/12/06 00:28:58;;;;;;;6.70;3.88;;;7.80;58.60;;;;;;6115054;23;20021;-53
2021/12/06 00:31:30;;;;;;;7.63;3.97;;;7.80;58.60;;;;;;6115430;23;20002;-56
2021/12/06 00:34:00;;;;;;;6.25;3.55;;;7.80;58.60;;;;;;6125878;23;19998;-50
2021/12/06 00:36:29;;;;;;;7.38;3.65;;;7.80;58.70;;;;;;6114653;23;20001;-51
2021/12/06 00:38:56;;;;;;;9.35;4.20;;;7.80;58.70;;;;;;6115423;23;19998;-52
2021/12/06 00:41:23;;;;;;;7.47;4.40;;;7.80;58.70;;;;;;6114379;23;20006;-54
2021/12/06 00:43:50;;;;;;;8.77;4.18;;;7.80;58.70;;;;;;6115238;23;20439;-52
2021/12/06 00:46:16;;;;;;;6.88;3.90;;;7.70;58.60;;;;;;6115701;23;20006;-49
2021/12/06 00:48:42;;;;;;;6.03;3.70;;;7.70;58.50;;;;;;6116477;23;20030;-53
2021/12/06 00:51:11;;;;;;;5.00;3.42;;;7.70;58.60;;;;;;6114130;23;20017;-54
2021/12/06 00:53:37;;;;;;;8.02;3.42;;;7.70;58.60;;;;;;6115632;23;20005;-56
2021/12/06 00:56:04;;;;;;;6.95;3.75;;;7.70;58.60;;;;;;6116743;23;20184;-53
2021/12/06 00:58:30;;;;;;;7.43;4.13;;;7.70;58.50;;;;;;6115542;23;20335;-54
2021/12/06 01:00:57;;;;;;;6.45;4.22;;;7.70;58.50;;;;;;6114230;23;20006;-53
2021/12/06 01:03:30;;;;;;;6.95;4.03;;;7.70;58.40;;;;;;6113856;23;20002;-53
2021/12/06 01:05:56;;;;;;;10.60;5.70;;;7.60;58.30;;;;;;6122486;23;20372;-55
2021/12/06 01:08:24;;;;;;;7.03;4.45;;;7.60;58.30;;;;;;6115374;23;20009;-53
2021/12/06 01:10:51;;;;;;;16.33;7.13;;;7.60;58.30;;;;;;6116571;23;20010;-51
2021/12/06 01:13:18;;;;;;;15.52;7.38;;;7.50;58.20;;;;;;6114429;23;20022;-56
2021/12/06 01:15:45;;;;;;;12.27;6.75;;;7.50;58.20;;;;;;6115473;23;20002;-53
2021/12/06 01:18:14;;;;;;;10.85;5.57;;;7.50;58.30;;;;;;6114209;23;20006;-53
2021/12/06 01:20:51;;;;;;;9.73;5.13;;;7.40;58.30;;;;;;6114111;23;20013;-53
2021/12/06 01:23:21;;;;;;;8.82;5.22;;;7.40;58.30;;;;;;6123554;23;20013;-53
2021/12/06 01:34:05;;;;;;;9.88;4.90;;;7.20;58.30;;;;;;6124067;23;20002;-56
2021/12/06 01:39:17;;;;;;;7.20;4.18;;;7.10;58.30;;;;;;6125572;23;20209;-52
2021/12/06 01:41:56;;;;;;;8.00;4.45;;;7.10;58.30;;;;;;6124181;23;20002;-51
2021/12/06 01:44:28;;;;;;;8.02;4.20;;;7.10;58.30;;;;;;6123803;23;20002;-56
2021/12/06 01:46:56;;;;;;;7.18;4.63;;;7.00;58.30;;;;;;6114565;23;20835;-53
2021/12/06 01:49:25;;;;;;;7.57;4.50;;;6.90;58.30;;;;;;6115909;23;20027;-53
2021/12/06 01:51:54;;;;;;;6.43;4.53;;;6.90;58.30;;;;;;6114054;23;20458;-54
2021/12/06 01:54:21;;;;;;;6.80;4.15;;;6.80;58.30;;;;;;6111805;23;20429;-56
2021/12/06 01:56:49;;;;;;;7.13;4.72;;;6.80;58.30;;;;;;6116009;23;20300;-54
2021/12/06 01:59:17;;;;;;;8.00;4.55;;;6.70;58.30;;;;;;6114154;23;19998;-52
2021/12/06 02:01:43;;;;;;;7.75;4.45;;;6.70;58.30;;;;;;6114237;23;20009;-53
2021/12/06 02:04:10;;;;;;;9.30;5.10;;;6.70;58.40;;;;;;6113111;23;20029;-55
2021/12/06 02:06:38;;;;;;;8.18;4.72;;;6.60;58.40;;;;;;6112413;23;20005;-55
2021/12/06 02:09:11;;;;;;;8.35;4.30;;;6.60;58.60;;;;;;6124190;23;20017;-53
2021/12/06 02:11:39;;;;;;;9.45;4.18;;;6.50;58.70;;;;;;6115224;23;20009;-53
2021/12/06 02:16:42;;;;;;;8.40;4.70;;;6.50;58.80;;;;;;6114205;23;20013;-55
2021/12/06 02:19:10;;;;;;;10.85;4.78;;;6.50;58.90;;;;;;6112263;23;20032;-54
2021/12/06 02:21:41;;;;;;;8.52;5.35;;;6.40;59.00;;;;;;6112412;23;20006;-56
2021/12/06 02:24:09;;;;;;;8.48;5.03;;;6.40;59.10;;;;;;6123171;23;20328;-56
2021/12/06 02:26:41;;;;;;;9.63;4.90;;;6.40;59.10;;;;;;6114413;23;20017;-56
2021/12/06 02:29:09;;;;;;;9.02;4.70;;;6.40;59.10;;;;;;6114041;23;19998;-56
2021/12/06 02:31:35;;;;;;;7.78;4.53;;;6.40;59.10;;;;;;6113413;23;20014;-53
2021/12/06 02:34:02;;;;;;;6.47;4.25;;;6.30;58.90;;;;;;6113129;23;20013;-54
2021/12/06 02:36:29;;;;;;;6.88;4.00;;;6.30;58.90;;;;;;6113747;23;20002;-53
2021/12/06 02:38:56;;;;;;;8.93;4.78;;;6.30;58.90;;;;;;6112606;23;20282;-53
2021/12/06 02:41:23;;;;;;;12.35;5.07;;;6.30;59.00;;;;;;6112323;23;20403;-54
2021/12/06 02:43:52;;;;;;;9.20;4.93;;;6.20;59.00;;;;;;6114369;23;20011;-53
2021/12/06 02:46:19;;;;;;;7.32;4.35;;;6.20;59.10;;;;;;6115623;23;20319;-52
2021/12/06 02:48:45;;;;;;;8.45;4.72;;;6.10;59.20;;;;;;6116765;23;20312;-54
2021/12/06 02:51:15;;;;;;;8.70;4.70;;;6.10;59.30;;;;;;6114839;23;20006;-54
2021/12/06 02:53:42;;;;;;;6.85;4.32;;;6.10;59.40;;;;;;6116337;23;20005;-52
2021/12/06 02:58:59;;;;;;;8.02;4.65;;;6.10;59.70;;;;;;6122653;23;20009;-53
2021/12/06 03:01:30;;;;;;;9.25;4.57;;;6.10;59.70;;;;;;6113263;23;20033;-53
2021/12/06 03:03:57;;;;;;;10.35;5.10;;;6.00;59.80;;;;;;6114472;23;20018;-52
2021/12/06 03:06:24;;;;;;;9.52;5.38;;;6.00;59.80;;;;;;6114387;23;20331;-53
2021/12/06 03:09:01;;;;;;;6.13;4.32;;;6.00;59.90;;;;;;6125826;23;20017;-51
2021/12/06 03:11:41;;;;;;;10.07;5.07;;;6.00;60.00;;;;;;6115364;23;20017;-54
2021/12/06 03:14:11;;;;;;;7.53;4.55;;;6.00;60.00;;;;;;6114114;23;20010;-53
2021/12/06 03:16:37;;;;;;;8.05;4.55;;;6.00;60.00;;;;;;6111707;23;20458;-54
2021/12/06 03:19:05;;;;;;;9.93;4.72;;;6.00;60.10;;;;;;6116456;23;20016;-51
2021/12/06 03:21:31;;;;;;;7.78;4.65;;;6.00;60.10;;;;;;6112759;23;20002;-52
2021/12/06 03:23:58;;;;;;;8.10;4.85;;;6.00;60.10;;;;;;6116024;23;20009;-53
2021/12/06 03:26:26;;;;;;;9.07;4.78;;;6.00;60.10;;;;;;6117251;23;20006;-53
2021/12/06 03:28:53;;;;;;;8.95;4.82;;;6.00;60.10;;;;;;6114309;23;20029;-53
2021/12/06 03:31:20;;;;;;;8.60;4.93;;;6.00;60.20;;;;;;6116027;23;20013;-51
2021/12/06 03:33:49;;;;;;;7.10;4.65;;;6.00;60.20;;;;;;6115998;23;20718;-52
2021/12/06 03:36:18;;;;;;;7.95;4.82;;;6.00;60.30;;;;;;6114018;23;20323;-52
2021/12/06 03:38:45;;;;;;;8.48;4.82;;;5.90;60.20;;;;;;6117062;23;20419;-56
2021/12/06 03:41:13;;;;;;;7.10;4.72;;;6.00;60.40;;;;;;6116051;23;20006;-56
2021/12/06 03:43:41;;;;;;;6.63;4.53;;;6.00;60.40;;;;;;6116040;23;20319;-52
2021/12/06 03:46:10;;;;;;;6.47;4.43;;;5.90;60.40;;;;;;6115550;23;20005;-55
2021/12/06 03:48:36;;;;;;;7.05;4.45;;;5.90;60.50;;;;;;6115835;23;19998;-54
2021/12/06 03:51:03;;;;;;;7.75;4.57;;;6.00;60.60;;;;;;6116119;23;20014;-54
2021/12/06 03:53:30;;;;;;;7.63;4.90;;;6.00;60.70;;;;;;6112973;23;20013;-53
2021/12/06 03:55:57;;;;;;;10.35;5.45;;;6.00;60.80;;;;;;6115954;23;20005;-55
2021/12/06 03:58:23;;;;;;;12.50;5.55;;;6.00;61.10;;;;;;6117453;23;20009;-52
2021/12/06 04:00:50;;;;;;;9.48;5.00;;;6.00;60.80;;;;;;6115631;23;20395;-50
2021/12/06 04:03:20;;;;;;;11.10;4.97;;;6.00;60.80;;;;;;6113014;23;20005;-54
2021/12/06 04:05:47;;;;;;;7.47;5.00;;;6.00;61.50;;;;;;6115572;23;20006;-53
2021/12/06 04:08:13;;;;;;;10.35;5.18;;;6.00;60.70;;;;;;6115383;23;20013;-52
2021/12/06 04:10:42;;;;;;;8.23;5.30;;;6.00;60.60;;;;;;6114180;23;20018;-56
2021/12/06 04:13:10;;;;;;;8.98;5.13;;;6.00;60.50;;;;;;6115358;23;20002;-54
2021/12/06 04:15:39;;;;;;;11.20;5.65;;;6.00;61.10;;;;;;6115369;23;20060;-53
2021/12/06 04:18:05;;;;;;;10.57;5.13;;;6.00;60.40;;;;;;6114805;23;20327;-54
2021/12/06 04:20:32;;;;;;;8.90;5.00;;;6.00;60.30;;;;;;6115494;23;19998;-53
2021/12/06 04:22:58;;;;;;;7.47;4.45;;;5.90;60.10;;;;;;6114475;23;20268;-53
2021/12/06 04:25:24;;;;;;;8.07;3.97;;;5.90;60.00;;;;;;6115963;23;19998;-53
2021/12/06 04:27:54;;;;;;;9.32;5.35;;;5.90;60.00;;;;;;6113516;23;20009;-56
2021/12/06 04:30:23;;;;;;;8.43;4.53;;;5.90;60.20;;;;;;6116006;23;20435;-54
2021/12/06 04:32:52;;;;;;;13.10;5.25;;;5.90;60.20;;;;;;6116504;23;20479;-52
2021/12/06 04:35:19;;;;;;;9.70;5.00;;;5.90;60.20;;;;;;6114977;23;20006;-54
2021/12/06 04:37:45;;;;;;;7.70;4.18;;;5.80;60.10;;;;;;6113577;23;19998;-56
2021/12/06 04:40:12;;;;;;;9.30;5.20;;;5.80;60.00;;;;;;6114891;23;20442;-49
2021/12/06 04:42:39;;;;;;;8.13;4.65;;;5.80;60.70;;;;;;6116777;23;20013;-54
2021/12/06 04:45:06;;;;;;;10.10;5.15;;;5.80;60.00;;;;;;6114871;23;20423;-53
2021/12/06 04:47:32;;;;;;;8.20;4.63;;;5.80;60.30;;;;;;6114294;23;20010;-54
2021/12/06 04:49:59;;;;;;;7.32;4.80;;;5.70;60.20;;;;;;6115828;23;20005;-55
2021/12/06 04:52:26;;;;;;;10.23;5.13;;;5.70;59.90;;;;;;6115013;23;20017;-53
2021/12/06 04:54:56;;;;;;;10.07;4.90;;;5.70;59.80;;;;;;6114383;23;20002;-55
2021/12/06 04:57:30;;;;;;;8.07;5.15;;;5.70;59.80;;;;;;6125715;23;19998;-52
2021/12/06 05:00:20;;;;;;;8.83;5.10;;;5.60;59.80;;;;;;6124765;23;20323;-51
2021/12/06 05:02:46;;;;;;;7.20;4.43;;;5.60;59.90;;;;;;6115209;23;20014;-53
2021/12/06 05:05:18;;;;;;;9.43;4.65;;;5.60;59.70;;;;;;6114713;23;20006;-54
2021/12/06 05:07:55;;;;;;;8.25;5.20;;;5.50;59.60;;;;;;6111866;23;20470;-54
2021/12/06 05:10:22;;;;;;;11.65;5.22;;;5.50;59.70;;;;;;6124825;23;20005;-55
2021/12/06 05:12:49;;;;;;;10.50;5.75;;;5.40;59.90;;;;;;6114725;23;20009;-56
2021/12/06 05:15:15;;;;;;;10.90;5.85;;;5.30;59.70;;;;;;6109505;23;19998;-54
2021/12/06 05:17:43;;;;;;;8.55;5.55;;;5.30;59.90;;;;;;6110977;23;20009;-54
2021/12/06 05:20:11;;;;;;;12.48;6.10;;;5.20;60.20;;;;;;6112387;23;20327;-53
2021/12/06 05:22:37;;;;;;;11.40;6.18;;;5.20;60.60;;;;;;6110409;23;20458;-53
2021/12/06 05:25:04;;;;;;;10.88;6.13;;;5.10;61.00;;;;;;6113524;23;20020;-53
2021/12/06 05:27:31;;;;;;;10.18;5.93;;;5.10;61.50;;;;;;6114934;23;20006;-52
2021/12/06 05:30:01;;;;;;;13.80;5.95;;;5.10;61.80;;;;;;6114122;23;20006;-54
2021/12/06 05:32:31;;;;;;;14.60;5.85;;;5.10;62.00;;;;;;6114044;23;20447;-56
2021/12/06 05:35:04;;;;;;;10.82;6.13;;;5.10;62.20;;;;;;6115071;23;20025;-55
2021/12/06 05:37:31;;;;;;;16.48;5.60;;;5.10;62.40;;;;;;6113187;23;20016;-55
2021/12/06 05:39:58;;;;;;;15.02;6.40;;;5.20;62.70;;;;;;6114062;23;19998;-56
2021/12/06 05:42:24;;;;;;;12.90;6.38;;;5.20;62.90;;;;;;6115072;23;20009;-53
2021/12/06 05:44:51;;;;;;;10.82;5.45;;;5.20;63.10;;;;;;6112336;23;20335;-56
2021/12/06 05:47:17;;;;;;;10.73;5.85;;;5.20;63.20;;;;;;6112659;23;20025;-56
2021/12/06 05:49:44;;;;;;;9.75;5.38;;;5.30;63.20;;;;;;6114016;23;20021;-54
2021/12/06 05:52:10;;;;;;;15.35;5.93;;;5.30;63.10;;;;;;6113273;23;20001;-53
2021/12/06 05:54:36;;;;;;;10.25;5.45;;;5.40;62.90;;;;;;6115280;23;20006;-56
2021/12/06 05:57:05;;;;;;;13.10;5.85;;;5.40;62.80;;;;;;6115757;23;20446;-54
2021/12/06 05:59:31;;;;;;;9.02;5.47;;;5.50;62.70;;;;;;6114017;23;20427;-52
2021/12/06 06:01:58;;;;;;;12.35;6.13;;;5.50;62.70;;;;;;6113674;23;20033;-50
2021/12/06 06:04:26;;;;;;;13.80;6.30;;;5.50;62.60;;;;;;6111022;23;20014;-56
2021/12/06 06:06:52;;;;;;;12.15;6.07;;;5.50;62.60;;;;;;6110463;23;20320;-49
2021/12/06 06:09:19;;;;;;;18.13;8.75;;;5.60;62.60;;;;;;6106416;23;20040;-52
2021/12/06 06:11:45;;;;;;;13.32;7.05;;;5.60;62.50;;;;;;6113547;23;20010;-54
2021/12/06 06:14:12;;;;;;;13.38;7.07;;;5.60;62.50;;;;;;6114480;23;20327;-53
2021/12/06 06:16:47;;;;;;;10.57;5.70;;;5.60;62.50;;;;;;6112296;23;20033;-54
2021/12/06 06:19:16;;;;;;;10.40;5.70;;;5.60;62.50;;;;;;6124999;23;19998;-53
2021/12/06 06:21:42;;;;;;;9.38;6.18;;;5.70;62.40;;;;;;6083044;23;20033;-55
2021/12/06 06:24:08;;;;;;;13.82;6.55;;;5.70;62.30;;;;;;6112740;23;20200;-53
2021/12/06 06:26:35;;;;;;;10.10;6.38;;;5.70;62.30;;;;;;6112672;23;20028;-55
2021/12/06 06:29:02;;;;;;;11.20;6.50;;;5.70;62.20;;;;;;6113474;23;20317;-56
2021/12/06 06:31:28;;;;;;;11.10;6.53;;;5.70;62.30;;;;;;6113763;23;20447;-56
2021/12/06 06:33:54;;;;;;;10.35;5.88;;;5.70;62.30;;;;;;6113824;23;20386;-56
2021/12/06 06:36:20;;;;;;;12.90;6.97;;;5.80;63.20;;;;;;6113178;23;20002;-54
2021/12/06 06:38:46;;;;;;;9.35;6.45;;;5.80;62.50;;;;;;6114310;23;20002;-55
2021/12/06 06:41:13;;;;;;;13.57;7.30;;;5.80;62.50;;;;;;6114910;23;20010;-53
2021/12/06 06:43:39;;;;;;;11.07;6.03;;;5.80;62.60;;;;;;6114553;23;20009;-51
2021/12/06 06:46:06;;;;;;;10.05;5.88;;;5.90;62.40;;;;;;6114195;23;20442;-53
2021/12/06 06:48:33;;;;;;;11.07;6.05;;;5.90;62.20;;;;;;6113655;23;20006;-56
2021/12/06 06:50:59;;;;;;;11.35;5.60;;;5.90;62.00;;;;;;6110841;23;20006;-53
2021/12/06 06:53:27;;;;;;;10.65;5.82;;;5.90;61.90;;;;;;6109295;23;20014;-53
2021/12/06 06:55:55;;;;;;;9.50;6.47;;;5.90;61.80;;;;;;6113091;23;20016;-55
2021/12/06 06:58:21;;;;;;;19.00;8.18;;;5.90;61.80;;;;;;6114177;23;20423;-55
2021/12/06 07:00:48;;;;;;;11.82;6.78;;;5.90;61.80;;;;;;6113396;23;20531;-55
2021/12/06 07:03:14;;;;;;;11.23;6.95;;;5.90;61.80;;;;;;6112343;23;20002;-55
2021/12/06 07:05:41;;;;;;;12.65;7.13;;;5.90;61.80;;;;;;6113692;23;20017;-53
2021/12/06 07:08:07;;;;;;;11.93;7.60;;;5.90;61.80;;;;;;6111879;23;20029;-54
2021/12/06 07:10:34;;;;;;;13.60;6.47;;;5.90;61.90;;;;;;6113049;23;20014;-56
2021/12/06 07:13:04;;;;;;;11.75;5.80;;;6.00;61.70;;;;;;6112402;23;20009;-53
2021/12/06 07:15:33;;;;;;;10.65;5.82;;;5.90;60.90;;;;;;6113990;23;20009;-52
2021/12/06 07:18:01;;;;;;;8.55;5.72;;;5.90;60.70;;;;;;6111350;23;20683;-53
2021/12/06 07:20:30;;;;;;;13.07;7.28;;;5.80;60.90;;;;;;6112693;23;20002;-52
2021/12/06 07:22:56;;;;;;;11.52;6.97;;;5.80;61.30;;;;;;6111719;23;20411;-54
2021/12/06 07:25:23;;;;;;;15.43;7.13;;;5.80;61.70;;;;;;6112650;23;20013;-54
2021/12/06 07:27:51;;;;;;;11.77;6.93;;;5.70;61.90;;;;;;6111422;23;20009;-55
2021/12/06 07:30:19;;;;;;;14.13;7.28;;;5.80;62.10;;;;;;6112508;23;20018;-54
2021/12/06 07:32:46;;;;;;;13.05;7.55;;;5.80;62.20;;;;;;6114529;23;20411;-51
2021/12/06 07:35:14;;;;;;;14.48;7.90;;;5.80;62.20;;;;;;6113924;23;20279;-53
2021/12/06 07:37:41;;;;;;;13.02;7.65;;;5.80;62.40;;;;;;6114716;23;20006;-54
2021/12/06 07:40:10;;;;;;;13.20;7.28;;;5.80;63.10;;;;;;6116592;23;20013;-54
2021/12/06 07:42:36;;;;;;;13.40;8.90;;;5.80;62.50;;;;;;6116254;23;20025;-55
2021/12/06 07:45:05;;;;;;;15.23;8.57;;;5.90;62.60;;;;;;6113294;23;20002;-56
2021/12/06 07:47:32;;;;;;;15.60;7.85;;;5.90;62.50;;;;;;6114098;23;20009;-56
2021/12/06 07:49:58;;;;;;;9.88;6.57;;;5.90;62.40;;;;;;6113186;23;20002;-55
2021/12/06 07:52:24;;;;;;;11.57;7.13;;;5.90;62.30;;;;;;6114871;23;19998;-52
2021/12/06 07:54:50;;;;;;;9.35;6.30;;;6.00;62.30;;;;;;6115281;23;20308;-52
2021/12/06 07:57:17;;;;;;;11.40;6.88;;;6.00;62.20;;;;;;6116722;23;20265;-53
2021/12/06 07:59:43;;;;;;;11.10;6.78;;;6.00;62.10;;;;;;6114542;23;20002;-54
2021/12/06 08:02:09;;;;;;;11.25;6.95;;;6.00;62.10;;;;;;6115822;23;20002;-56
2021/12/06 08:04:37;;;;;;;18.50;8.32;;;6.00;62.00;;;;;;6117060;23;20002;-54
2021/12/06 08:07:03;;;;;;;12.15;7.97;;;6.00;61.90;;;;;;6114250;23;20021;-56
2021/12/06 08:09:30;;;;;;;16.40;8.40;;;6.00;61.90;;;;;;6116943;23;20429;-54
2021/12/06 08:11:58;;;;;;;15.38;9.38;;;6.00;61.90;;;;;;6116053;23;20010;-54
2021/12/06 08:14:24;;;;;;;16.77;9.43;;;6.00;62.10;;;;;;6115331;23;20414;-54
2021/12/06 08:16:51;;;;;;;18.33;10.05;;;6.00;62.10;;;;;;6115985;23;20055;-53
2021/12/06 08:19:18;;;;;;;14.77;8.73;;;6.10;62.30;;;;;;6115580;23;20006;-56
2021/12/06 08:21:44;;;;;;;15.02;9.15;;;6.10;62.50;;;;;;6114748;23;20009;-56
2021/12/06 08:24:10;;;;;;;17.35;9.32;;;6.10;62.60;;;;;;6113968;23;20014;-53
2021/12/06 08:26:40;;;;;;;16.45;9.35;;;6.10;62.80;;;;;;6115060;23;20272;-55
2021/12/06 08:29:08;;;;;;;16.52;9.60;;;6.20;63.00;;;;;;6113667;23;20319;-56
2021/12/06 08:31:36;;;;;;;14.13;8.75;;;6.20;63.80;;;;;;6116120;23;20033;-53
2021/12/06 08:34:04;;;;;;;17.92;9.90;;;6.30;63.20;;;;;;6116316;23;19994;-56
2021/12/06 08:36:30;;;;;;;15.90;9.90;;;6.30;63.30;;;;;;6114370;23;20002;-52
2021/12/06 08:38:57;;;;;;;17.42;9.85;;;6.40;63.30;;;;;;6113380;23;20013;-55
2021/12/06 08:41:28;;;;;;;16.95;9.82;;;6.40;63.30;;;;;;6115923;23;20029;-55
2021/12/06 08:43:56;;;;;;;15.98;9.68;;;6.50;63.20;;;;;;6111358;23;20009;-54
2021/12/06 08:46:35;;;;;;;18.40;10.50;;;6.50;62.90;;;;;;6113208;23;20291;-52
2021/12/06 08:49:05;;;;;;;16.95;8.57;;;6.60;62.90;;;;;;6113794;23;20006;-51
2021/12/06 08:51:38;;;;;;;15.65;9.75;;;6.60;62.70;;;;;;6113213;23;19998;-54
2021/12/06 08:54:08;;;;;;;17.73;9.85;;;6.60;62.60;;;;;;6115595;23;19998;-53
2021/12/06 08:56:36;;;;;;;16.40;10.15;;;6.70;62.60;;;;;;6115753;23;20002;-54
2021/12/06 08:59:05;;;;;;;15.02;9.85;;;6.70;62.40;;;;;;6114768;23;20537;-54
2021/12/06 09:01:33;;;;;;;16.60;9.65;;;6.70;62.20;;;;;;6114400;23;20006;-54
2021/12/06 09:04:00;;;;;;;17.90;9.10;;;6.80;62.20;;;;;;6114733;23;20005;-53
2021/12/06 09:06:26;;;;;;;16.20;9.00;;;6.80;62.10;;;;;;6112919;23;20502;-55
2021/12/06 09:08:54;;;;;;;13.75;9.18;;;6.80;61.90;;;;;;6125390;23;20010;-54
2021/12/06 09:11:21;;;;;;;14.77;8.68;;;6.80;61.80;;;;;;6113739;23;19998;-51
2021/12/06 09:13:47;;;;;;;17.25;9.88;;;6.80;61.70;;;;;;6112323;23;20006;-53
2021/12/06 09:16:14;;;;;;;15.65;9.60;;;6.80;61.70;;;;;;6114750;23;20017;-53
2021/12/06 09:18:42;;;;;;;15.80;9.20;;;6.80;61.80;;;;;;6114974;23;20009;-54
2021/12/06 09:21:13;;;;;;;13.95;9.55;;;6.80;61.80;;;;;;6114365;23;20015;-56
2021/12/06 09:23:40;;;;;;;14.15;8.98;;;6.80;61.80;;;;;;6112684;23;20002;-54
2021/12/06 09:26:07;;;;;;;15.73;9.43;;;6.80;61.80;;;;;;6113471;23;20023;-53
2021/12/06 09:28:34;;;;;;;16.15;8.88;;;6.80;61.90;;;;;;6115849;23;20446;-56
2021/12/06 09:31:01;;;;;;;14.20;9.93;;;6.80;62.00;;;;;;6115639;23;20075;-56
2021/12/06 09:33:29;;;;;;;16.85;10.15;;;6.80;62.10;;;;;;6112697;23;20009;-53
2021/12/06 09:35:58;;;;;;;15.77;10.05;;;6.80;62.20;;;;;;6114010;23;19994;-55
2021/12/06 09:38:33;;;;;;;17.23;10.60;;;6.90;62.40;;;;;;6114241;23;19998;-56
2021/12/06 09:40:59;;;;;;;17.70;9.57;;;6.90;62.40;;;;;;6114268;23;20029;-53
2021/12/06 09:43:26;;;;;;;15.70;10.02;;;7.00;62.40;;;;;;6114108;23;20331;-54
2021/12/06 09:45:54;;;;;;;17.40;9.85;;;7.00;62.40;;;;;;6112590;23;20474;-52
2021/12/06 09:48:21;;;;;;;16.17;10.27;;;7.00;62.40;;;;;;6114834;23;20013;-53
2021/12/06 09:51:00;;;;;;;17.65;10.77;;;7.00;62.30;;;;;;6113598;23;20431;-51
2021/12/06 09:53:29;;;;;;;17.83;10.85;;;7.00;62.30;;;;;;6120772;23;20005;-54
2021/12/06 09:55:58;;;;;;;19.80;11.48;;;7.10;62.40;;;;;;6111487;23;20014;-56
2021/12/06 09:58:24;;;;;;;17.45;11.07;;;7.10;62.40;;;;;;6111211;23;20006;-53
2021/12/06 10:00:58;;;;;;;18.10;10.38;;;7.10;62.30;;;;;;6113748;23;20005;-53
2021/12/06 10:03:28;;;;;;;15.90;10.82;;;7.10;62.30;;;;;;6119376;23;20002;-53
2021/12/06 10:06:02;;;;;;;17.60;10.60;;;7.10;62.20;;;;;;6106049;23;20181;-52
2021/12/06 10:08:42;;;;;;;17.07;10.30;;;7.10;62.20;;;;;;6111798;23;20211;-54
2021/12/06 10:11:09;;;;;;;15.57;9.90;;;7.20;62.20;;;;;;6125138;23;20233;-56
2021/12/06 10:13:36;;;;;;;19.77;10.52;;;7.10;62.00;;;;;;6112273;23;20474;-56
2021/12/06 10:16:03;;;;;;;17.30;10.45;;;7.10;62.00;;;;;;6113669;23;20002;-52
2021/12/06 10:18:30;;;;;;;15.73;10.40;;;7.20;62.00;;;;;;6114866;23;20005;-56
2021/12/06 10:20:57;;;;;;;16.00;10.25;;;7.20;61.90;;;;;;6115012;23;20005;-54
2021/12/06 10:23:23;;;;;;;14.80;9.63;;;7.20;61.90;;;;;;6113507;23;20032;-54
2021/12/06 10:25:52;;;;;;;16.02;10.20;;;7.20;61.80;;;;;;6112703;23;20010;-52
2021/12/06 10:28:23;;;;;;;17.52;9.63;;;7.20;61.70;;;;;;6112624;23;20006;-55
2021/12/06 10:30:53;;;;;;;12.07;8.88;;;7.20;61.60;;;;;;6124420;23;20017;-54
2021/12/06 10:33:23;;;;;;;13.57;8.88;;;7.20;61.50;;;;;;6114532;23;20006;-53
2021/12/06 10:35:54;;;;;;;14.35;9.57;;;7.20;61.50;;;;;;6113867;23;20005;-56
2021/12/06 10:38:24;;;;;;;13.90;9.05;;;7.30;61.40;;;;;;6123947;23;19998;-53
2021/12/06 10:41:03;;;;;;;13.77;8.85;;;7.30;61.30;;;;;;6113940;23;20011;-53
2021/12/06 10:43:30;;;;;;;14.68;10.00;;;7.30;61.30;;;;;;6120967;23;20009;-56
2021/12/06 10:45:58;;;;;;;16.80;9.80;;;7.30;61.20;;;;;;6109920;23;20238;-55
2021/12/06 10:48:32;;;;;;;18.63;10.75;;;7.30;61.00;;;;;;6110630;23;20002;-56
2021/12/06 10:51:18;;;;;;;17.02;11.07;;;7.30;61.00;;;;;;6122589;23;20012;-52
2021/12/06 10:53:55;;;;;;;16.83;10.40;;;7.30;60.90;;;;;;6120273;23;20013;-56
2021/12/06 10:56:25;;;;;;;16.70;10.55;;;7.30;60.90;;;;;;6120447;23;20013;-54
2021/12/06 10:58:55;;;;;;;18.08;11.02;;;7.30;60.90;;;;;;6115065;23;19999;-54
2021/12/06 11:01:26;;;;;;;16.40;10.32;;;7.30;60.90;;;;;;6088035;23;20009;-56
2021/12/06 11:03:56;;;;;;;15.80;10.48;;;7.30;60.90;;;;;;6122489;23;20017;-52
2021/12/06 11:06:30;;;;;;;18.13;10.38;;;7.30;60.90;;;;;;6113591;23;20009;-53
2021/12/06 11:09:00;;;;;;;19.40;11.43;;;7.30;60.90;;;;;;6125437;23;20481;-55
2021/12/06 11:11:31;;;;;;;17.83;10.18;;;7.30;61.00;;;;;;6117147;23;20002;-53
2021/12/06 11:14:11;;;;;;;23.60;11.93;;;7.30;61.10;;;;;;6112913;23;20114;-56
2021/12/06 11:16:46;;;;;;;20.60;11.75;;;7.30;61.10;;;;;;6116979;23;20002;-56
2021/12/06 11:19:17;;;;;;;18.17;10.90;;;7.30;61.30;;;;;;6121780;23;20454;-54
2021/12/06 11:21:46;;;;;;;21.00;11.90;;;7.30;61.30;;;;;;6106441;23;20002;-55
2021/12/06 11:24:15;;;;;;;22.85;11.88;;;7.30;61.40;;;;;;6105798;23;20001;-56
2021/12/06 11:26:48;;;;;;;19.05;11.23;;;7.30;61.40;;;;;;6110912;23;20002;-55
2021/12/06 11:29:22;;;;;;;20.25;11.80;;;7.20;61.50;;;;;;6113124;23;20006;-53
2021/12/06 11:31:55;;;;;;;19.67;11.98;;;7.30;61.70;;;;;;6109429;23;20014;-55
2021/12/06 11:34:28;;;;;;;19.52;11.90;;;7.30;61.60;;;;;;6118556;23;20002;-56
2021/12/06 11:36:55;;;;;;;90.20;37.38;;;7.30;61.70;;;;;;6123681;23;20607;-53
2021/12/06 11:39:27;;;;;;;66.22;31.05;;;7.30;61.70;;;;;;6108055;23;20002;-56
2021/12/06 11:41:57;;;;;;;24.85;14.48;;;7.30;62.50;;;;;;6125606;23;20009;-56
2021/12/06 11:44:31;;;;;;;22.35;12.88;;;7.30;61.80;;;;;;6111003;23;20322;-55
2021/12/06 11:47:03;;;;;;;20.75;11.98;;;7.30;61.90;;;;;;6111683;23;20331;-53
2021/12/06 11:49:36;;;;;;;20.77;12.48;;;7.30;61.80;;;;;;6125521;23;20010;-55
2021/12/06 11:52:05;;;;;;;21.05;12.07;;;7.30;61.90;;;;;;6122635;23;20013;-57
2021/12/06 11:54:43;;;;;;;22.58;12.73;;;7.30;61.90;;;;;;6115078;23;20006;-55
2021/12/06 11:57:27;;;;;;;22.45;12.77;;;7.40;62.00;;;;;;6125971;23;19994;-56
2021/12/06 12:00:00;;;;;;;25.60;12.97;;;7.30;62.00;;;;;;6115955;23;20006;-51
2021/12/06 12:03:04;;;;;;;23.75;13.60;;;7.40;62.00;;;;;;6116523;23;20005;-54
2021/12/06 12:05:36;;;;;;;22.70;13.27;;;7.40;62.10;;;;;;6102063;23;20013;-54
2021/12/06 12:08:11;;;;;;;23.15;13.10;;;7.40;62.10;;;;;;6112424;23;20018;-54
2021/12/06 12:10:44;;;;;;;23.92;13.98;;;7.40;62.20;;;;;;6115451;23;20006;-56
2021/12/06 12:13:22;;;;;;;24.15;14.27;;;7.40;62.20;;;;;;6114964;23;20010;-56
2021/12/06 12:15:50;;;;;;;23.83;14.27;;;7.40;62.20;;;;;;6111642;23;20009;-54
2021/12/06 12:18:17;;;;;;;24.35;14.85;;;7.40;62.20;;;;;;6115186;23;19994;-55
2021/12/06 12:20:43;;;;;;;26.67;14.38;;;7.50;62.30;;;;;;6116131;23;20617;-55
2021/12/06 12:23:10;;;;;;;25.98;14.77;;;7.50;62.40;;;;;;6112712;23;20001;-53
2021/12/06 12:25:44;;;;;;;23.65;14.27;;;7.50;62.40;;;;;;6113807;23;20002;-53
2021/12/06 12:28:27;;;;;;;22.80;13.85;;;7.50;62.40;;;;;;6124778;23;20009;-53
2021/12/06 12:30:57;;;;;;;22.85;13.38;;;7.50;62.40;;;;;;6122870;23;20359;-56
2021/12/06 12:33:24;;;;;;;22.90;13.88;;;7.50;62.40;;;;;;6114170;23;20009;-56
2021/12/06 12:35:53;;;;;;;22.30;13.68;;;7.60;62.40;;;;;;6115697;23;20328;-53
2021/12/06 12:38:25;;;;;;;22.23;13.20;;;7.60;62.40;;;;;;6114505;23;20021;-53
2021/12/06 12:40:58;;;;;;;24.17;13.18;;;7.60;62.40;;;;;;6115448;23;20010;-54
2021/12/06 12:43:32;;;;;;;22.20;13.77;;;7.60;62.40;;;;;;6124637;23;20002;-54
2021/12/06 12:46:02;;;;;;;;;;;7.70;62.50;;;;;;6124513;23;20005;-54
2021/12/06 12:48:45;;;;;;;18.95;11.70;;;7.70;62.70;;;;;;6115652;23;19912;-53
2021/12/06 12:51:18;;;;;;;23.33;13.63;;;7.70;62.40;;;;;;6117325;23;20325;-52
2021/12/06 12:54:02;;;;;;;22.38;12.30;;;7.80;62.40;;;;;;6107394;23;20013;-54
2021/12/06 12:56:37;;;;;;;20.13;10.65;;;7.80;62.50;;;;;;6110099;23;19998;-54
2021/12/06 12:59:25;;;;;;;19.58;11.82;;;7.80;62.50;;;;;;6109459;23;20010;-54
2021/12/06 13:02:10;;;;;;;18.65;11.48;;;7.90;62.60;;;;;;6112204;23;20371;-54
2021/12/06 13:08:02;;;;;;;72.63;30.95;;;8.00;62.50;;;;;;6123177;23;20033;-56
2021/12/06 13:10:45;;;;;;;71.53;32.40;;;8.00;62.40;;;;;;6114260;23;20002;-54
2021/12/06 13:13:22;;;;;;;53.38;26.13;;;8.10;62.30;;;;;;6121982;23;20009;-56
2021/12/06 13:21:32;;;;;;;83.75;36.88;;;8.20;61.90;;;;;;6115492;23;20021;-56
2021/12/06 13:24:23;;;;;;;38.13;19.20;;;8.20;61.50;;;;;;6114282;23;20014;-55